createdAt,value
2023-04-18T00:01:19.190Z,100.00
2023-04-18T00:03:48.834Z,100.00
2023-04-18T00:06:17.219Z,100.00
2023-04-18T00:08:45.497Z,100.00
2023-04-18T00:11:13.604Z,100.00
2023-04-18T00:13:47.390Z,100.00
2023-04-18T00:16:15.642Z,100.00
2023-04-18T00:18:43.751Z,100.00
2023-04-18T00:21:13.490Z,100.00
2023-04-18T00:23:41.765Z,100.00
2023-04-18T00:26:10.109Z,100.00
2023-04-18T00:28:38.205Z,100.00
2023-04-18T00:31:06.534Z,100.00
2023-04-18T00:33:35.967Z,100.00
2023-04-18T00:36:04.457Z,100.00
2023-04-18T00:38:33.923Z,100.00
2023-04-18T00:41:02.226Z,100.00
2023-04-18T00:43:30.466Z,100.00
2023-04-18T00:46:01.543Z,100.00
2023-04-18T00:48:30.883Z,100.00
2023-04-18T00:51:00.373Z,100.00
2023-04-18T00:53:29.045Z,100.00
2023-04-18T00:55:58.971Z,100.00
2023-04-18T00:58:27.662Z,100.00
2023-04-18T01:00:55.848Z,100.00
2023-04-18T01:03:27.424Z,100.00
2023-04-18T01:05:57.537Z,100.00
2023-04-18T01:08:26.253Z,100.00
2023-04-18T01:10:54.423Z,100.00
2023-04-18T01:13:26.804Z,100.00
2023-04-18T01:15:55.776Z,100.00
2023-04-18T01:18:24.386Z,100.00
2023-04-18T01:20:54.663Z,100.00
2023-04-18T01:23:22.870Z,100.00
2023-04-18T01:25:52.313Z,100.00
2023-04-18T01:28:22.836Z,100.00
2023-04-18T01:30:51.128Z,100.00
2023-04-18T01:33:19.177Z,100.00
2023-04-18T01:35:47.334Z,100.00
2023-04-18T01:38:18.625Z,100.00
2023-04-18T01:40:46.864Z,100.00
2023-04-18T01:43:16.443Z,100.00
2023-04-18T01:45:44.495Z,100.00
2023-04-18T01:48:12.589Z,100.00
2023-04-18T01:50:40.667Z,100.00
2023-04-18T01:53:08.735Z,100.00
2023-04-18T01:55:36.739Z,100.00
2023-04-18T01:58:04.766Z,100.00
2023-04-18T02:00:34.320Z,100.00
2023-04-18T02:03:02.567Z,100.00
2023-04-18T02:05:30.769Z,100.00
2023-04-18T02:07:59.277Z,100.00
2023-04-18T02:10:27.366Z,100.00
2023-04-18T02:12:55.409Z,100.00
2023-04-18T02:15:25.671Z,100.00
2023-04-18T02:17:55.502Z,100.00
2023-04-18T02:20:23.841Z,100.00
2023-04-18T02:22:51.876Z,100.00
2023-04-18T02:25:23.572Z,100.00
2023-04-18T02:27:51.851Z,100.00
2023-04-18T02:30:23.475Z,100.00
2023-04-18T02:32:53.296Z,100.00
2023-04-18T02:35:23.051Z,100.00
2023-04-18T02:37:51.232Z,100.00
2023-04-18T02:40:20.939Z,100.00
2023-04-18T02:42:49.150Z,100.00
2023-04-18T02:45:17.201Z,100.00
2023-04-18T02:47:54.536Z,100.00
2023-04-18T02:50:27.083Z,100.00
2023-04-18T02:52:55.835Z,100.00
2023-04-18T02:55:26.984Z,100.00
2023-04-18T02:57:55.169Z,100.00
2023-04-18T03:00:23.355Z,100.00
2023-04-18T03:02:53.306Z,100.00
2023-04-18T03:05:23.140Z,100.00
2023-04-18T03:07:52.592Z,100.00
2023-04-18T03:10:23.263Z,100.00
2023-04-18T03:12:51.331Z,100.00
2023-04-18T03:15:19.668Z,100.00
2023-04-18T03:17:47.721Z,100.00
2023-04-18T03:20:15.789Z,100.00
2023-04-18T03:22:44.000Z,100.00
2023-04-18T03:25:13.478Z,100.00
2023-04-18T03:27:42.937Z,100.00
2023-04-18T03:30:11.511Z,100.00
2023-04-18T03:32:39.655Z,100.00
2023-04-18T03:35:07.975Z,100.00
2023-04-18T03:37:36.250Z,100.00
2023-04-18T03:40:05.469Z,100.00
2023-04-18T03:42:34.899Z,100.00
2023-04-18T03:45:06.586Z,100.00
2023-04-18T03:47:34.651Z,100.00
2023-04-18T03:50:02.951Z,100.00
2023-04-18T03:52:31.014Z,100.00
2023-04-18T03:54:59.069Z,100.00
2023-04-18T03:57:27.323Z,100.00
2023-04-18T03:59:56.707Z,100.00
2023-04-18T04:02:24.963Z,100.00
2023-04-18T04:04:53.262Z,100.00
2023-04-18T04:07:21.355Z,100.00
2023-04-18T04:09:49.622Z,100.00
2023-04-18T04:12:17.936Z,100.00
2023-04-18T04:14:46.013Z,100.00
2023-04-18T04:17:15.593Z,100.00
2023-04-18T04:19:43.759Z,100.00
2023-04-18T04:22:11.864Z,100.00
2023-04-18T04:24:40.488Z,100.00
2023-04-18T04:27:08.615Z,100.00
2023-04-18T04:29:38.728Z,100.00
2023-04-18T04:32:07.215Z,100.00
2023-04-18T04:34:36.855Z,100.00
2023-04-18T04:37:04.956Z,100.00
2023-04-18T04:39:33.048Z,100.00
2023-04-18T04:42:03.942Z,100.00
2023-04-18T04:44:32.142Z,100.00
2023-04-18T04:47:00.335Z,100.00
2023-04-18T04:49:28.414Z,100.00
2023-04-18T04:51:59.590Z,100.00
2023-04-18T04:54:29.525Z,100.00
2023-04-18T04:56:57.848Z,100.00
2023-04-18T04:59:25.991Z,100.00
2023-04-18T05:01:54.256Z,100.00
2023-04-18T05:04:22.425Z,100.00
2023-04-18T05:06:50.736Z,100.00
2023-04-18T05:09:20.387Z,100.00
2023-04-18T05:11:49.426Z,100.00
2023-04-18T05:14:17.887Z,100.00
2023-04-18T05:16:46.072Z,100.00
2023-04-18T05:19:14.572Z,100.00
2023-04-18T05:21:42.655Z,100.00
2023-04-18T05:24:11.163Z,100.00
2023-04-18T05:26:40.973Z,100.00
2023-04-18T05:29:08.944Z,100.00
2023-04-18T05:31:37.037Z,100.00
2023-04-18T05:34:05.258Z,100.00
2023-04-18T05:36:33.485Z,100.00
2023-04-18T05:39:01.568Z,100.00
2023-04-18T05:41:29.711Z,100.00
2023-04-18T05:44:17.162Z,100.00
2023-04-18T05:46:45.463Z,100.00
2023-04-18T05:49:13.932Z,100.00
2023-04-18T05:51:42.078Z,100.00
2023-04-18T05:54:10.153Z,100.00
2023-04-18T05:56:45.881Z,100.00
2023-04-18T05:59:15.536Z,100.00
2023-04-18T06:01:44.271Z,100.00
2023-04-18T06:04:12.508Z,100.00
2023-04-18T06:06:40.822Z,100.00
2023-04-18T06:09:09.185Z,100.00
2023-04-18T06:11:37.171Z,100.00
2023-04-18T06:14:05.242Z,100.00
2023-04-18T06:16:34.685Z,100.00
2023-04-18T06:19:03.420Z,100.00
2023-04-18T06:21:31.602Z,100.00
2023-04-18T06:24:01.358Z,100.00
2023-04-18T06:26:30.225Z,100.00
2023-04-18T06:28:58.223Z,100.00
2023-04-18T06:31:26.396Z,100.00
2023-04-18T06:33:55.929Z,100.00
2023-04-18T06:36:24.236Z,100.00
2023-04-18T06:38:52.295Z,100.00
2023-04-18T06:41:20.524Z,100.00
2023-04-18T06:44:02.894Z,100.00
2023-04-18T06:46:32.637Z,100.00
2023-04-18T06:49:02.229Z,100.00
2023-04-18T06:51:30.285Z,100.00
2023-04-18T06:53:58.357Z,100.00
2023-04-18T06:56:27.061Z,100.00
2023-04-18T06:58:55.085Z,100.00
2023-04-18T07:01:23.270Z,100.00
2023-04-18T07:03:54.338Z,100.00
2023-04-18T07:06:23.864Z,100.00
2023-04-18T07:09:00.056Z,100.00
2023-04-18T07:11:28.586Z,100.00
2023-04-18T07:13:56.686Z,100.00
2023-04-18T07:16:24.846Z,100.00
2023-04-18T07:18:52.986Z,100.00
2023-04-18T07:21:21.045Z,100.00
2023-04-18T07:23:50.678Z,100.00
2023-04-18T07:26:19.101Z,100.00
2023-04-18T07:28:47.197Z,100.00
2023-04-18T07:31:16.668Z,100.00
2023-04-18T07:33:47.268Z,100.00
2023-04-18T07:36:15.490Z,100.00
2023-04-18T07:38:44.428Z,100.00
2023-04-18T07:41:17.104Z,100.00
2023-04-18T07:43:45.799Z,100.00
2023-04-18T07:46:14.125Z,100.00
2023-04-18T07:48:44.566Z,100.00
2023-04-18T07:51:12.952Z,100.00
2023-04-18T07:53:44.636Z,100.00
2023-04-18T07:56:14.544Z,100.00
2023-04-18T07:58:44.066Z,100.00
2023-04-18T08:01:14.415Z,100.00
2023-04-18T08:03:42.960Z,100.00
2023-04-18T08:06:14.090Z,100.00
2023-04-18T08:08:42.183Z,100.00
2023-04-18T08:11:10.253Z,100.00
2023-04-18T08:13:38.411Z,100.00
2023-04-18T08:16:08.180Z,100.00
2023-04-18T08:18:36.988Z,100.00
2023-04-18T08:21:05.664Z,100.00
2023-04-18T08:23:33.731Z,100.00
2023-04-18T08:26:01.910Z,100.00
2023-04-18T08:28:29.986Z,100.00
2023-04-18T08:30:58.172Z,100.00
2023-04-18T08:33:28.442Z,100.00
2023-04-18T08:35:56.624Z,100.00
2023-04-18T08:38:24.743Z,100.00
2023-04-18T08:40:52.771Z,100.00
2023-04-18T08:43:20.913Z,100.00
2023-04-18T08:45:49.149Z,100.00
2023-04-18T08:48:19.918Z,100.00
2023-04-18T08:50:49.459Z,100.00
2023-04-18T08:53:18.569Z,100.00
2023-04-18T08:55:47.818Z,100.00
2023-04-18T08:58:22.460Z,100.00
2023-04-18T09:00:54.587Z,100.00
2023-04-18T09:03:39.792Z,100.00
2023-04-18T09:06:12.507Z,100.00
2023-04-18T09:08:44.758Z,100.00
2023-04-18T09:11:26.551Z,100.00
2023-04-18T09:13:56.422Z,100.00
2023-04-18T09:16:25.004Z,100.00
2023-04-18T09:19:13.980Z,100.00
2023-04-18T09:21:46.336Z,100.00
2023-04-18T09:24:24.394Z,100.00
2023-04-18T09:26:54.081Z,100.00
2023-04-18T09:29:23.462Z,100.00
2023-04-18T09:32:00.059Z,100.00
2023-04-18T09:34:28.826Z,100.00
2023-04-18T09:37:12.149Z,100.00
2023-04-18T09:39:41.344Z,100.00
2023-04-18T09:42:10.572Z,100.00
2023-04-18T09:44:39.415Z,100.00
2023-04-18T09:47:08.504Z,100.00
2023-04-18T09:49:36.653Z,100.00
2023-04-18T09:52:08.687Z,100.00
2023-04-18T09:54:40.518Z,100.00
2023-04-18T09:57:12.984Z,100.00
2023-04-18T09:59:47.739Z,100.00
2023-04-18T10:02:22.150Z,100.00
2023-04-18T10:04:51.876Z,100.00
2023-04-18T10:07:21.325Z,100.00
2023-04-18T10:09:51.139Z,100.00
2023-04-18T10:12:19.957Z,100.00
2023-04-18T10:14:50.663Z,100.00
2023-04-18T10:17:22.349Z,100.00
2023-04-18T10:20:07.255Z,100.00
2023-04-18T10:22:36.694Z,100.00
2023-04-18T10:25:07.367Z,100.00
2023-04-18T10:28:00.163Z,99.28
2023-04-18T10:30:51.561Z,98.46
2023-04-18T10:33:32.151Z,98.31
2023-04-18T10:36:03.638Z,98.34
2023-04-18T10:38:32.536Z,97.13
2023-04-18T10:41:25.025Z,97.97
2023-04-18T10:44:22.458Z,98.24
2023-04-18T10:47:22.582Z,97.33
2023-04-18T10:49:58.908Z,99.35
2023-04-18T10:52:28.634Z,99.20
2023-04-18T10:55:04.986Z,98.57
2023-04-18T10:57:41.599Z,97.63
2023-04-18T11:00:12.694Z,98.71
2023-04-18T11:02:41.548Z,97.44
2023-04-18T11:05:10.897Z,98.56
2023-04-18T11:07:41.169Z,97.26
2023-04-18T11:10:10.980Z,97.22
2023-04-18T11:12:41.839Z,97.53
2023-04-18T11:15:12.639Z,98.50
2023-04-18T11:17:41.332Z,100.00
2023-04-18T11:20:11.602Z,98.95
2023-04-18T11:22:47.586Z,98.17
2023-04-18T11:25:16.404Z,98.57
2023-04-18T11:27:47.176Z,97.54
2023-04-18T11:30:16.644Z,97.28
2023-04-18T11:32:45.071Z,99.81
2023-04-18T11:35:14.859Z,98.58
2023-04-18T11:37:45.497Z,98.64
2023-04-18T11:40:14.830Z,100.00
2023-04-18T11:42:43.345Z,99.98
2023-04-18T11:45:14.220Z,100.00
2023-04-18T11:47:43.940Z,99.82
2023-04-18T11:50:14.118Z,100.00
2023-04-18T11:52:43.668Z,100.00
2023-04-18T11:55:14.219Z,100.00
2023-04-18T11:57:42.717Z,100.00
2023-04-18T12:00:13.693Z,100.00
2023-04-18T12:02:43.750Z,100.00
2023-04-18T12:05:14.524Z,100.00
2023-04-18T12:07:45.912Z,100.00
2023-04-18T12:10:26.077Z,99.68
2023-04-18T12:12:56.261Z,100.00
2023-04-18T12:15:28.301Z,100.00
2023-04-18T12:18:00.357Z,100.00
2023-04-18T12:20:36.476Z,100.00
2023-04-18T12:23:05.005Z,100.00
2023-04-18T12:25:33.698Z,100.00
2023-04-18T12:28:04.619Z,99.86
2023-04-18T12:30:37.682Z,99.71
2023-04-18T12:33:06.739Z,98.95
2023-04-18T12:35:34.839Z,98.60
2023-04-18T12:38:03.956Z,97.68
2023-04-18T12:40:33.559Z,97.41
2023-04-18T12:43:03.530Z,97.91
2023-04-18T12:45:33.794Z,97.64
2023-04-18T12:48:01.935Z,97.70
2023-04-18T12:50:30.101Z,97.25
2023-04-18T12:53:01.189Z,95.50
2023-04-18T12:55:29.604Z,97.23
2023-04-18T12:57:58.232Z,96.96
2023-04-18T13:00:30.632Z,97.70
2023-04-18T13:03:00.904Z,97.35
2023-04-18T13:05:33.684Z,98.24
2023-04-18T13:10:34.034Z,100.00
2023-04-18T13:13:02.167Z,97.77
2023-04-18T13:15:30.392Z,98.43
2023-04-18T13:18:04.434Z,98.79
2023-04-18T13:20:33.342Z,98.07
2023-04-18T13:23:03.012Z,98.72
2023-04-18T13:25:33.433Z,99.12
2023-04-18T13:28:01.729Z,97.13
2023-04-18T13:30:29.949Z,96.67
2023-04-18T13:32:59.479Z,94.97
2023-04-18T13:35:27.625Z,94.81
2023-04-18T13:37:56.125Z,95.27
2023-04-18T13:40:25.329Z,93.83
2023-04-18T13:42:53.430Z,91.95
2023-04-18T13:45:21.725Z,91.56
2023-04-18T13:47:49.905Z,90.70
2023-04-18T13:50:20.346Z,88.58
2023-04-18T13:52:49.370Z,87.86
2023-04-18T13:55:17.945Z,85.78
2023-04-18T13:57:46.012Z,81.42
2023-04-18T14:00:15.346Z,81.79
2023-04-18T14:02:43.771Z,82.01
2023-04-18T14:05:12.242Z,83.33
2023-04-18T14:07:42.038Z,81.08
2023-04-18T14:10:10.860Z,80.10
2023-04-18T14:12:40.132Z,82.15
2023-04-18T14:15:09.654Z,78.25
2023-04-18T14:17:37.826Z,80.49
2023-04-18T14:20:07.898Z,80.02
2023-04-18T14:22:36.079Z,78.88
2023-04-18T14:25:06.438Z,79.54
2023-04-18T14:27:34.592Z,80.33
2023-04-18T14:30:02.676Z,80.60
2023-04-18T14:32:31.100Z,80.50
2023-04-18T14:34:59.958Z,80.67
2023-04-18T14:37:27.998Z,80.97
2023-04-18T14:39:56.152Z,79.31
2023-04-18T14:42:25.890Z,81.53
2023-04-18T14:44:54.042Z,80.28
2023-04-18T14:47:24.341Z,80.56
2023-04-18T14:49:52.623Z,79.55
2023-04-18T14:52:20.731Z,79.06
2023-04-18T14:54:49.176Z,80.75
2023-04-18T14:57:17.281Z,80.71
2023-04-18T14:59:46.696Z,82.56
2023-04-18T15:02:15.005Z,80.28
2023-04-18T15:04:43.322Z,78.83
2023-04-18T15:07:11.494Z,80.31
2023-04-18T15:09:39.701Z,81.04
2023-04-18T15:12:08.170Z,80.21
2023-04-18T15:14:39.957Z,80.10
2023-04-18T15:17:09.467Z,81.67
2023-04-18T15:19:37.679Z,82.14
2023-04-18T15:22:05.775Z,80.75
2023-04-18T15:24:33.903Z,79.96
2023-04-18T15:27:02.038Z,81.27
2023-04-18T15:29:30.426Z,82.59
2023-04-18T15:31:58.555Z,81.22
2023-04-18T15:34:28.033Z,80.37
2023-04-18T15:36:56.119Z,80.59
2023-04-18T15:39:24.212Z,80.93
2023-04-18T15:41:54.503Z,80.28
2023-04-18T15:44:22.700Z,81.68
2023-04-18T15:46:51.218Z,81.83
2023-04-18T15:49:19.241Z,82.42
2023-04-18T15:51:48.725Z,83.36
2023-04-18T15:54:17.067Z,81.13
2023-04-18T15:56:45.389Z,82.22
2023-04-18T15:59:13.730Z,81.43
2023-04-18T16:01:44.443Z,82.22
2023-04-18T16:04:14.357Z,80.65
2023-04-18T16:06:43.327Z,81.96
2023-04-18T16:09:13.105Z,82.46
2023-04-18T16:11:41.548Z,82.81
2023-04-18T16:14:09.757Z,80.98
2023-04-18T16:16:37.896Z,84.20
2023-04-18T16:19:06.298Z,83.80
2023-04-18T16:21:36.678Z,83.56
2023-04-18T16:24:04.875Z,84.63
2023-04-18T16:26:34.450Z,83.99
2023-04-18T16:29:02.642Z,82.98
2023-04-18T16:31:30.761Z,85.15
2023-04-18T16:33:58.843Z,85.64
2023-04-18T16:36:27.306Z,87.57
2023-04-18T16:38:55.412Z,86.84
2023-04-18T16:41:23.616Z,87.71
2023-04-18T16:43:53.890Z,87.55
2023-04-18T16:46:22.022Z,86.95
2023-04-18T16:48:51.864Z,87.56
2023-04-18T16:51:20.656Z,88.84
2023-04-18T16:53:49.219Z,88.71
2023-04-18T16:56:17.360Z,89.16
2023-04-18T16:58:45.469Z,89.97
2023-04-18T17:01:15.007Z,90.65
2023-04-18T17:03:43.235Z,89.42
2023-04-18T17:06:11.536Z,89.76
2023-04-18T17:08:39.685Z,90.61
2023-04-18T17:11:07.813Z,90.96
2023-04-18T17:13:36.353Z,91.38
2023-04-18T17:16:04.536Z,92.49
2023-04-18T17:18:34.133Z,91.26
2023-04-18T17:21:02.259Z,92.55
2023-04-18T17:23:32.705Z,92.49
2023-04-18T17:26:01.116Z,91.72
2023-04-18T17:28:29.148Z,91.00
2023-04-18T17:30:58.572Z,92.71
2023-04-18T17:33:29.384Z,92.45
2023-04-18T17:35:58.947Z,93.10
2023-04-18T17:38:27.015Z,93.86
2023-04-18T17:41:00.332Z,94.24
2023-04-18T17:43:28.637Z,94.90
2023-04-18T17:45:57.118Z,95.73
2023-04-18T17:48:25.935Z,95.86
2023-04-18T17:50:54.039Z,97.88
2023-04-18T17:53:23.623Z,97.02
2023-04-18T17:55:52.405Z,97.32
2023-04-18T17:58:21.059Z,97.28
2023-04-18T18:00:49.318Z,96.91
2023-04-18T18:03:18.445Z,97.34
2023-04-18T18:05:48.996Z,97.77
2023-04-18T18:08:17.293Z,98.46
2023-04-18T18:10:48.108Z,99.32
2023-04-18T18:13:16.219Z,99.60
2023-04-18T18:15:44.272Z,99.69
2023-04-18T18:18:12.420Z,99.83
2023-04-18T18:20:42.740Z,100.00
2023-04-18T18:23:11.141Z,100.00
2023-04-18T18:25:39.124Z,100.00
2023-04-18T18:28:08.753Z,100.00
2023-04-18T18:30:38.034Z,100.00
2023-04-18T18:33:11.610Z,100.00
2023-04-18T18:35:40.105Z,100.00
2023-04-18T18:38:08.534Z,100.00
2023-04-18T18:40:36.608Z,100.00
2023-04-18T18:43:04.886Z,100.00
2023-04-18T18:45:36.971Z,100.00
2023-04-18T18:48:07.366Z,100.00
2023-04-18T18:50:38.541Z,100.00
2023-04-18T18:53:10.088Z,100.00
2023-04-18T18:55:38.107Z,100.00
2023-04-18T18:58:07.916Z,100.00
2023-04-18T19:00:37.333Z,100.00
2023-04-18T19:03:05.767Z,100.00
2023-04-18T19:05:33.957Z,100.00
2023-04-18T19:08:04.130Z,100.00
2023-04-18T19:10:32.266Z,100.00
2023-04-18T19:13:01.294Z,100.00
2023-04-18T19:15:29.374Z,100.00
2023-04-18T19:17:58.920Z,100.00
2023-04-18T19:20:28.817Z,100.00
2023-04-18T19:22:57.378Z,100.00
2023-04-18T19:25:27.791Z,100.00
2023-04-18T19:27:55.909Z,100.00
2023-04-18T19:30:24.969Z,100.00
2023-04-18T19:32:53.201Z,100.00
2023-04-18T19:35:23.480Z,100.00
2023-04-18T19:37:51.547Z,100.00
2023-04-18T19:40:19.692Z,100.00
2023-04-18T19:42:47.792Z,100.00
2023-04-18T19:45:16.141Z,100.00
2023-04-18T19:47:45.244Z,100.00
2023-04-18T19:50:13.308Z,100.00
2023-04-18T19:52:42.792Z,100.00
2023-04-18T19:55:11.676Z,100.00
2023-04-18T19:57:41.408Z,100.00
2023-04-18T20:00:12.189Z,100.00
2023-04-18T20:02:42.327Z,100.00
2023-04-18T20:05:12.611Z,100.00
2023-04-18T20:07:42.687Z,100.00
2023-04-18T20:10:11.448Z,100.00
2023-04-18T20:12:39.533Z,100.00
2023-04-18T20:15:08.813Z,100.00
2023-04-18T20:17:36.941Z,100.00
2023-04-18T20:20:08.250Z,100.00
2023-04-18T20:22:37.652Z,100.00
2023-04-18T20:25:08.695Z,100.00
2023-04-18T20:27:36.881Z,100.00
2023-04-18T20:30:05.849Z,100.00
2023-04-18T20:32:34.664Z,100.00
2023-04-18T20:35:04.399Z,100.00
2023-04-18T20:37:36.768Z,100.00
2023-04-18T20:40:10.766Z,100.00
2023-04-18T20:42:42.696Z,100.00
2023-04-18T20:45:14.167Z,100.00
2023-04-18T20:47:42.507Z,100.00
2023-04-18T20:50:11.389Z,100.00
2023-04-18T20:52:42.678Z,100.00
2023-04-18T20:55:12.612Z,100.00
2023-04-18T20:57:40.851Z,100.00
2023-04-18T21:00:10.681Z,100.00
2023-04-18T21:02:39.020Z,100.00
2023-04-18T21:05:07.864Z,100.00
2023-04-18T21:07:36.113Z,100.00
2023-04-18T21:10:04.353Z,100.00
2023-04-18T21:12:33.826Z,100.00
2023-04-18T21:15:02.218Z,100.00
2023-04-18T21:17:30.372Z,100.00
2023-04-18T21:19:58.494Z,100.00
2023-04-18T21:22:26.734Z,100.00
2023-04-18T21:24:54.877Z,100.00
2023-04-18T21:27:22.975Z,100.00
2023-04-18T21:29:52.569Z,100.00
2023-04-18T21:32:21.119Z,100.00
2023-04-18T21:34:49.192Z,100.00
2023-04-18T21:37:17.355Z,100.00
2023-04-18T21:39:45.479Z,100.00
2023-04-18T21:42:13.526Z,100.00
2023-04-18T21:44:41.666Z,100.00
2023-04-18T21:47:11.127Z,100.00
2023-04-18T21:49:39.213Z,100.00
2023-04-18T21:52:07.700Z,100.00
2023-04-18T21:54:35.774Z,100.00
2023-04-18T21:57:05.965Z,100.00
2023-04-18T21:59:34.197Z,100.00
2023-04-18T22:02:02.366Z,100.00
2023-04-18T22:04:34.580Z,100.00
2023-04-18T22:07:02.761Z,100.00
2023-04-18T22:09:36.270Z,100.00
2023-04-18T22:12:05.188Z,100.00
2023-04-18T22:14:33.236Z,100.00
2023-04-18T22:17:03.332Z,100.00
2023-04-18T22:19:31.533Z,100.00
2023-04-18T22:22:00.979Z,100.00
2023-04-18T22:24:29.104Z,100.00
2023-04-18T22:26:57.146Z,100.00
2023-04-18T22:29:25.335Z,100.00
2023-04-18T22:31:53.404Z,100.00
2023-04-18T22:34:21.544Z,100.00
2023-04-18T22:36:49.716Z,100.00
2023-04-18T22:39:19.311Z,100.00
2023-04-18T22:41:50.096Z,100.00
2023-04-18T22:44:18.137Z,100.00
2023-04-18T22:46:48.191Z,100.00
2023-04-18T22:49:18.011Z,100.00
2023-04-18T22:51:46.567Z,100.00
2023-04-18T22:54:14.880Z,100.00
2023-04-18T22:56:44.505Z,100.00
2023-04-18T22:59:12.693Z,100.00
2023-04-18T23:01:40.796Z,100.00
2023-04-18T23:04:09.196Z,100.00
2023-04-18T23:06:39.846Z,100.00
2023-04-18T23:09:09.510Z,100.00
2023-04-18T23:11:37.644Z,100.00
2023-04-18T23:14:08.645Z,100.00
2023-04-18T23:16:36.882Z,100.00
2023-04-18T23:19:05.086Z,100.00
2023-04-18T23:21:33.250Z,100.00
2023-04-18T23:24:01.504Z,100.00
2023-04-18T23:26:29.689Z,100.00
2023-04-18T23:28:57.862Z,100.00
2023-04-18T23:31:27.369Z,100.00
2023-04-18T23:33:56.662Z,100.00
2023-04-18T23:36:27.823Z,100.00
2023-04-18T23:38:58.858Z,100.00
2023-04-18T23:41:27.082Z,100.00
2023-04-18T23:43:55.131Z,100.00
2023-04-18T23:46:23.235Z,100.00
2023-04-18T23:48:52.990Z,100.00
2023-04-18T23:51:21.089Z,100.00
2023-04-18T23:53:49.447Z,100.00
2023-04-18T23:56:17.608Z,100.00
2023-04-18T23:58:45.714Z,100.00
